sensor_id;sensor_type;location;lat;lon;timestamp;P1;durP1;ratioP1;P2;durP2;ratioP2
66400;SDS011;53211;45.040;38.788;2022-11-18T00:00:49;703.15;;;166.55;;
66400;SDS011;53211;45.040;38.788;2022-11-18T00:03:17;693.83;;;171.90;;
66400;SDS011;53211;45.040;38.788;2022-11-18T00:05:43;698.10;;;172.67;;
66400;SDS011;53211;45.040;38.788;2022-11-18T00:08:17;647.60;;;215.10;;
66400;SDS011;53211;45.040;38.788;2022-11-18T00:10:43;633.85;;;226.05;;
66400;SDS011;53211;45.040;38.788;2022-11-18T00:13:12;706.35;;;164.25;;
66400;SDS011;53211;45.040;38.788;2022-11-18T00:16:03;718.50;;;162.25;;
66400;SDS011;53211;45.040;38.788;2022-11-18T00:18:34;705.90;;;162.20;;
66400;SDS011;53211;45.040;38.788;2022-11-18T00:21:01;778.17;;;145.53;;
66400;SDS011;53211;45.040;38.788;2022-11-18T00:23:29;777.55;;;145.73;;
66400;SDS011;53211;45.040;38.788;2022-11-18T00:25:55;778.85;;;145.00;;
66400;SDS011;53211;45.040;38.788;2022-11-18T00:28:25;797.40;;;145.50;;
66400;SDS011;53211;45.040;38.788;2022-11-18T00:30:51;786.72;;;147.07;;
66400;SDS011;53211;45.040;38.788;2022-11-18T00:33:17;780.60;;;147.85;;
66400;SDS011;53211;45.040;38.788;2022-11-18T00:35:43;721.90;;;160.30;;
66400;SDS011;53211;45.040;38.788;2022-11-18T00:38:18;724.20;;;160.10;;
66400;SDS011;53211;45.040;38.788;2022-11-18T00:40:44;723.50;;;159.50;;
66400;SDS011;53211;45.040;38.788;2022-11-18T00:43:10;728.37;;;157.37;;
66400;SDS011;53211;45.040;38.788;2022-11-18T00:45:36;729.80;;;156.90;;
66400;SDS011;53211;45.040;38.788;2022-11-18T00:48:02;728.45;;;158.60;;
66400;SDS011;53211;45.040;38.788;2022-11-18T00:50:28;720.05;;;159.32;;
66400;SDS011;53211;45.040;38.788;2022-11-18T00:52:54;720.10;;;159.00;;
66400;SDS011;53211;45.040;38.788;2022-11-18T00:55:20;704.13;;;160.60;;
66400;SDS011;53211;45.040;38.788;2022-11-18T00:57:46;716.50;;;161.70;;
66400;SDS011;53211;45.040;38.788;2022-11-18T01:00:12;700.70;;;157.10;;
66400;SDS011;53211;45.040;38.788;2022-11-18T01:02:38;736.20;;;156.15;;
66400;SDS011;53211;45.040;38.788;2022-11-18T01:05:04;716.20;;;158.50;;
66400;SDS011;53211;45.040;38.788;2022-11-18T01:07:30;735.90;;;154.45;;
66400;SDS011;53211;45.040;38.788;2022-11-18T01:09:56;732.80;;;154.77;;
66400;SDS011;53211;45.040;38.788;2022-11-18T01:12:22;730.65;;;154.55;;
66400;SDS011;53211;45.040;38.788;2022-11-18T01:15:06;730.40;;;155.10;;
66400;SDS011;53211;45.040;38.788;2022-11-18T01:17:33;730.17;;;155.27;;
66400;SDS011;53211;45.040;38.788;2022-11-18T01:19:59;731.10;;;154.20;;
66400;SDS011;53211;45.040;38.788;2022-11-18T01:22:25;733.10;;;154.65;;
66400;SDS011;53211;45.040;38.788;2022-11-18T01:24:51;732.80;;;154.15;;
66400;SDS011;53211;45.040;38.788;2022-11-18T01:27:17;730.15;;;153.25;;
66400;SDS011;53211;45.040;38.788;2022-11-18T01:29:43;736.25;;;156.05;;
66400;SDS011;53211;45.040;38.788;2022-11-18T01:32:08;730.40;;;155.65;;
66400;SDS011;53211;45.040;38.788;2022-11-18T01:34:34;727.30;;;155.40;;
66400;SDS011;53211;45.040;38.788;2022-11-18T01:37:00;736.50;;;154.45;;
66400;SDS011;53211;45.040;38.788;2022-11-18T01:39:26;724.50;;;156.45;;
66400;SDS011;53211;45.040;38.788;2022-11-18T01:41:52;677.95;;;173.05;;
66400;SDS011;53211;45.040;38.788;2022-11-18T01:47:27;686.70;;;172.10;;
66400;SDS011;53211;45.040;38.788;2022-11-18T01:49:57;685.57;;;170.13;;
66400;SDS011;53211;45.040;38.788;2022-11-18T01:52:24;675.07;;;172.57;;
66400;SDS011;53211;45.040;38.788;2022-11-18T01:54:52;700.95;;;162.05;;
66400;SDS011;53211;45.040;38.788;2022-11-18T01:57:23;702.50;;;163.35;;
66400;SDS011;53211;45.040;38.788;2022-11-18T01:59:53;691.97;;;166.55;;
66400;SDS011;53211;45.040;38.788;2022-11-18T02:02:22;691.80;;;166.95;;
66400;SDS011;53211;45.040;38.788;2022-11-18T02:04:49;690.67;;;167.07;;
66400;SDS011;53211;45.040;38.788;2022-11-18T02:07:17;678.50;;;168.95;;
66400;SDS011;53211;45.040;38.788;2022-11-18T02:09:45;686.40;;;169.80;;
66400;SDS011;53211;45.040;38.788;2022-11-18T02:12:11;687.83;;;168.47;;
66400;SDS011;53211;45.040;38.788;2022-11-18T02:14:40;691.53;;;166.13;;
66400;SDS011;53211;45.040;38.788;2022-11-18T02:31:07;675.37;;;172.93;;
66400;SDS011;53211;45.040;38.788;2022-11-18T02:34:04;683.80;;;167.95;;
66400;SDS011;53211;45.040;38.788;2022-11-18T02:39:38;716.60;;;155.70;;
66400;SDS011;53211;45.040;38.788;2022-11-18T02:42:12;715.60;;;156.80;;
66400;SDS011;53211;45.040;38.788;2022-11-18T02:44:41;719.80;;;157.20;;
66400;SDS011;53211;45.040;38.788;2022-11-18T02:47:10;723.07;;;157.90;;
66400;SDS011;53211;45.040;38.788;2022-11-18T02:49:44;731.10;;;154.75;;
66400;SDS011;53211;45.040;38.788;2022-11-18T02:52:13;717.95;;;157.45;;
66400;SDS011;53211;45.040;38.788;2022-11-18T02:54:41;734.85;;;154.25;;
66400;SDS011;53211;45.040;38.788;2022-11-18T02:57:10;720.80;;;155.95;;
66400;SDS011;53211;45.040;38.788;2022-11-18T02:59:38;722.00;;;157.80;;
66400;SDS011;53211;45.040;38.788;2022-11-18T03:02:04;719.30;;;157.85;;
66400;SDS011;53211;45.040;38.788;2022-11-18T03:04:30;713.70;;;159.40;;
66400;SDS011;53211;45.040;38.788;2022-11-18T03:07:04;718.20;;;159.87;;
66400;SDS011;53211;45.040;38.788;2022-11-18T03:09:37;698.60;;;161.00;;
66400;SDS011;53211;45.040;38.788;2022-11-18T03:14:46;733.50;;;155.50;;
66400;SDS011;53211;45.040;38.788;2022-11-18T03:20:21;723.03;;;158.70;;
66400;SDS011;53211;45.040;38.788;2022-11-18T03:23:07;720.70;;;159.95;;
66400;SDS011;53211;45.040;38.788;2022-11-18T03:28:30;721.60;;;159.60;;
66400;SDS011;53211;45.040;38.788;2022-11-18T03:31:06;716.13;;;160.60;;
66400;SDS011;53211;45.040;38.788;2022-11-18T03:33:53;720.50;;;160.90;;
66400;SDS011;53211;45.040;38.788;2022-11-18T03:36:24;694.95;;;165.38;;
66400;SDS011;53211;45.040;38.788;2022-11-18T03:38:55;691.70;;;170.30;;
66400;SDS011;53211;45.040;38.788;2022-11-18T03:41:23;712.58;;;166.07;;
66400;SDS011;53211;45.040;38.788;2022-11-18T03:43:55;719.30;;;159.63;;
66400;SDS011;53211;45.040;38.788;2022-11-18T03:46:28;718.73;;;159.77;;
66400;SDS011;53211;45.040;38.788;2022-11-18T03:49:00;715.40;;;160.85;;
66400;SDS011;53211;45.040;38.788;2022-11-18T03:51:35;694.63;;;167.87;;
66400;SDS011;53211;45.040;38.788;2022-11-18T03:54:09;696.65;;;168.50;;
66400;SDS011;53211;45.040;38.788;2022-11-18T03:56:41;700.93;;;167.37;;
66400;SDS011;53211;45.040;38.788;2022-11-18T03:59:37;702.10;;;167.32;;
66400;SDS011;53211;45.040;38.788;2022-11-18T04:02:07;701.00;;;167.00;;
66400;SDS011;53211;45.040;38.788;2022-11-18T04:04:44;696.80;;;168.90;;
66400;SDS011;53211;45.040;38.788;2022-11-18T04:07:19;697.40;;;167.70;;
66400;SDS011;53211;45.040;38.788;2022-11-18T04:13:05;696.60;;;167.90;;
66400;SDS011;53211;45.040;38.788;2022-11-18T04:15:38;693.20;;;162.80;;
66400;SDS011;53211;45.040;38.788;2022-11-18T04:18:06;696.70;;;165.90;;
66400;SDS011;53211;45.040;38.788;2022-11-18T04:20:32;715.23;;;159.07;;
66400;SDS011;53211;45.040;38.788;2022-11-18T04:22:59;697.25;;;160.10;;
66400;SDS011;53211;45.040;38.788;2022-11-18T04:25:25;686.05;;;168.60;;
66400;SDS011;53211;45.040;38.788;2022-11-18T04:27:52;656.05;;;182.60;;
66400;SDS011;53211;45.040;38.788;2022-11-18T04:30:18;669.20;;;178.35;;
66400;SDS011;53211;45.040;38.788;2022-11-18T04:32:46;672.10;;;175.53;;
66400;SDS011;53211;45.040;38.788;2022-11-18T04:35:12;674.30;;;174.70;;
66400;SDS011;53211;45.040;38.788;2022-11-18T04:37:39;680.83;;;175.23;;
66400;SDS011;53211;45.040;38.788;2022-11-18T04:40:05;677.87;;;175.17;;
66400;SDS011;53211;45.040;38.788;2022-11-18T04:42:32;675.15;;;175.65;;
66400;SDS011;53211;45.040;38.788;2022-11-18T04:44:58;676.90;;;174.50;;
66400;SDS011;53211;45.040;38.788;2022-11-18T04:47:24;687.30;;;168.35;;
66400;SDS011;53211;45.040;38.788;2022-11-18T04:49:50;692.15;;;172.25;;
66400;SDS011;53211;45.040;38.788;2022-11-18T04:52:17;681.60;;;172.90;;
66400;SDS011;53211;45.040;38.788;2022-11-18T04:54:47;679.20;;;170.60;;
66400;SDS011;53211;45.040;38.788;2022-11-18T04:57:15;692.00;;;163.23;;
66400;SDS011;53211;45.040;38.788;2022-11-18T04:59:41;692.60;;;166.50;;
66400;SDS011;53211;45.040;38.788;2022-11-18T05:02:07;675.97;;;173.37;;
66400;SDS011;53211;45.040;38.788;2022-11-18T05:04:34;677.55;;;171.40;;
66400;SDS011;53211;45.040;38.788;2022-11-18T05:07:00;681.10;;;172.70;;
66400;SDS011;53211;45.040;38.788;2022-11-18T05:09:28;677.60;;;168.50;;
66400;SDS011;53211;45.040;38.788;2022-11-18T05:11:55;702.85;;;165.45;;
66400;SDS011;53211;45.040;38.788;2022-11-18T05:14:41;691.57;;;169.83;;
66400;SDS011;53211;45.040;38.788;2022-11-18T05:17:11;679.25;;;167.35;;
66400;SDS011;53211;45.040;38.788;2022-11-18T05:19:37;682.50;;;170.48;;
66400;SDS011;53211;45.040;38.788;2022-11-18T05:22:04;682.30;;;171.60;;
66400;SDS011;53211;45.040;38.788;2022-11-18T05:24:31;693.40;;;167.07;;
66400;SDS011;53211;45.040;38.788;2022-11-18T05:26:56;686.20;;;174.27;;
66400;SDS011;53211;45.040;38.788;2022-11-18T05:29:22;669.80;;;173.60;;
66400;SDS011;53211;45.040;38.788;2022-11-18T05:31:49;681.22;;;173.57;;
66400;SDS011;53211;45.040;38.788;2022-11-18T05:34:15;671.28;;;177.07;;
66400;SDS011;53211;45.040;38.788;2022-11-18T05:36:43;678.47;;;175.13;;
66400;SDS011;53211;45.040;38.788;2022-11-18T05:39:12;668.87;;;175.57;;
66400;SDS011;53211;45.040;38.788;2022-11-18T05:41:38;680.33;;;170.37;;
66400;SDS011;53211;45.040;38.788;2022-11-18T05:44:22;677.35;;;166.95;;
66400;SDS011;53211;45.040;38.788;2022-11-18T05:46:48;682.75;;;165.02;;
66400;SDS011;53211;45.040;38.788;2022-11-18T05:49:14;690.65;;;163.20;;
66400;SDS011;53211;45.040;38.788;2022-11-18T05:51:40;681.15;;;165.25;;
66400;SDS011;53211;45.040;38.788;2022-11-18T05:54:07;683.60;;;164.55;;
66400;SDS011;53211;45.040;38.788;2022-11-18T05:56:38;687.00;;;163.80;;
66400;SDS011;53211;45.040;38.788;2022-11-18T05:59:05;712.40;;;159.70;;
66400;SDS011;53211;45.040;38.788;2022-11-18T06:06:58;686.15;;;166.45;;
66400;SDS011;53211;45.040;38.788;2022-11-18T06:09:34;683.10;;;167.35;;
66400;SDS011;53211;45.040;38.788;2022-11-18T06:12:04;686.10;;;165.00;;
66400;SDS011;53211;45.040;38.788;2022-11-18T06:14:33;685.85;;;166.80;;
66400;SDS011;53211;45.040;38.788;2022-11-18T06:17:01;680.65;;;168.60;;
66400;SDS011;53211;45.040;38.788;2022-11-18T06:19:30;671.67;;;170.98;;
66400;SDS011;53211;45.040;38.788;2022-11-18T06:21:57;673.20;;;173.70;;
66400;SDS011;53211;45.040;38.788;2022-11-18T06:24:24;667.23;;;177.53;;
66400;SDS011;53211;45.040;38.788;2022-11-18T06:26:50;665.20;;;178.40;;
66400;SDS011;53211;45.040;38.788;2022-11-18T06:29:16;661.80;;;180.00;;
66400;SDS011;53211;45.040;38.788;2022-11-18T06:31:44;667.60;;;178.65;;
66400;SDS011;53211;45.040;38.788;2022-11-18T06:34:10;651.70;;;191.50;;
66400;SDS011;53211;45.040;38.788;2022-11-18T06:36:36;658.50;;;187.50;;
66400;SDS011;53211;45.040;38.788;2022-11-18T06:39:03;639.93;;;209.20;;
66400;SDS011;53211;45.040;38.788;2022-11-18T06:41:29;685.60;;;171.60;;
66400;SDS011;53211;45.040;38.788;2022-11-18T06:43:56;653.97;;;182.10;;
66400;SDS011;53211;45.040;38.788;2022-11-18T06:46:21;658.00;;;181.50;;
66400;SDS011;53211;45.040;38.788;2022-11-18T06:49:06;654.15;;;184.70;;
66400;SDS011;53211;45.040;38.788;2022-11-18T06:51:32;649.50;;;180.60;;
66400;SDS011;53211;45.040;38.788;2022-11-18T06:53:58;658.50;;;180.60;;
66400;SDS011;53211;45.040;38.788;2022-11-18T06:56:24;659.20;;;176.70;;
66400;SDS011;53211;45.040;38.788;2022-11-18T06:58:53;651.55;;;185.15;;
66400;SDS011;53211;45.040;38.788;2022-11-18T07:01:21;666.00;;;176.70;;
66400;SDS011;53211;45.040;38.788;2022-11-18T07:03:51;669.95;;;172.45;;
66400;SDS011;53211;45.040;38.788;2022-11-18T07:06:19;666.17;;;174.57;;
66400;SDS011;53211;45.040;38.788;2022-11-18T07:08:47;669.33;;;171.23;;
66400;SDS011;53211;45.040;38.788;2022-11-18T07:11:14;677.70;;;168.82;;
66400;SDS011;53211;45.040;38.788;2022-11-18T07:13:43;656.03;;;179.80;;
66400;SDS011;53211;45.040;38.788;2022-11-18T07:16:11;661.55;;;177.00;;
66400;SDS011;53211;45.040;38.788;2022-11-18T07:18:39;676.80;;;170.00;;
66400;SDS011;53211;45.040;38.788;2022-11-18T07:21:07;666.40;;;169.95;;
66400;SDS011;53211;45.040;38.788;2022-11-18T07:23:35;668.20;;;171.20;;
66400;SDS011;53211;45.040;38.788;2022-11-18T07:26:02;666.45;;;170.55;;
66400;SDS011;53211;45.040;38.788;2022-11-18T07:28:28;667.00;;;172.00;;
66400;SDS011;53211;45.040;38.788;2022-11-18T07:33:37;690.30;;;171.75;;
66400;SDS011;53211;45.040;38.788;2022-11-18T07:36:05;669.27;;;171.63;;
66400;SDS011;53211;45.040;38.788;2022-11-18T07:38:33;694.10;;;161.60;;
66400;SDS011;53211;45.040;38.788;2022-11-18T07:41:18;668.08;;;169.95;;
66400;SDS011;53211;45.040;38.788;2022-11-18T07:43:49;668.70;;;170.40;;
66400;SDS011;53211;45.040;38.788;2022-11-18T07:48:49;660.00;;;177.20;;
66400;SDS011;53211;45.040;38.788;2022-11-18T07:51:22;660.95;;;177.18;;
66400;SDS011;53211;45.040;38.788;2022-11-18T07:53:49;663.15;;;177.40;;
66400;SDS011;53211;45.040;38.788;2022-11-18T07:56:16;665.75;;;175.60;;
66400;SDS011;53211;45.040;38.788;2022-11-18T07:58:42;692.15;;;165.40;;
66400;SDS011;53211;45.040;38.788;2022-11-18T08:01:10;662.38;;;174.57;;
66400;SDS011;53211;45.040;38.788;2022-11-18T08:03:36;674.30;;;171.70;;
66400;SDS011;53211;45.040;38.788;2022-11-18T08:06:03;677.53;;;175.17;;
66400;SDS011;53211;45.040;38.788;2022-11-18T08:08:31;663.63;;;180.80;;
66400;SDS011;53211;45.040;38.788;2022-11-18T08:10:57;674.90;;;173.10;;
66400;SDS011;53211;45.040;38.788;2022-11-18T08:13:25;672.40;;;175.13;;
66400;SDS011;53211;45.040;38.788;2022-11-18T08:15:52;663.20;;;180.70;;
66400;SDS011;53211;45.040;38.788;2022-11-18T08:18:21;652.57;;;178.73;;
66400;SDS011;53211;45.040;38.788;2022-11-18T08:20:48;665.87;;;180.50;;
66400;SDS011;53211;45.040;38.788;2022-11-18T08:23:14;664.90;;;179.25;;
66400;SDS011;53211;45.040;38.788;2022-11-18T08:25:41;654.20;;;182.00;;
66400;SDS011;53211;45.040;38.788;2022-11-18T08:28:09;672.40;;;173.50;;
66400;SDS011;53211;45.040;38.788;2022-11-18T08:30:35;661.00;;;173.70;;
66400;SDS011;53211;45.040;38.788;2022-11-18T08:33:02;666.80;;;181.70;;
66400;SDS011;53211;45.040;38.788;2022-11-18T08:35:29;676.60;;;174.00;;
66400;SDS011;53211;45.040;38.788;2022-11-18T08:37:56;670.53;;;172.30;;
66400;SDS011;53211;45.040;38.788;2022-11-18T08:40:23;667.30;;;178.37;;
66400;SDS011;53211;45.040;38.788;2022-11-18T08:42:50;667.30;;;182.70;;
66400;SDS011;53211;45.040;38.788;2022-11-18T08:45:16;645.60;;;190.30;;
66400;SDS011;53211;45.040;38.788;2022-11-18T08:47:42;669.85;;;181.95;;
66400;SDS011;53211;45.040;38.788;2022-11-18T08:50:09;654.60;;;191.60;;
66400;SDS011;53211;45.040;38.788;2022-11-18T08:52:35;636.90;;;212.80;;
66400;SDS011;53211;45.040;38.788;2022-11-18T08:55:02;641.15;;;198.65;;
66400;SDS011;53211;45.040;38.788;2022-11-18T08:57:29;665.95;;;178.45;;
66400;SDS011;53211;45.040;38.788;2022-11-18T08:59:55;665.40;;;178.60;;
66400;SDS011;53211;45.040;38.788;2022-11-18T09:02:21;663.90;;;180.40;;
66400;SDS011;53211;45.040;38.788;2022-11-18T09:04:49;660.83;;;181.40;;
66400;SDS011;53211;45.040;38.788;2022-11-18T09:07:16;654.63;;;183.40;;
66400;SDS011;53211;45.040;38.788;2022-11-18T09:09:43;659.20;;;181.80;;
66400;SDS011;53211;45.040;38.788;2022-11-18T09:12:09;658.78;;;188.07;;
66400;SDS011;53211;45.040;38.788;2022-11-18T09:14:45;650.90;;;186.60;;
66400;SDS011;53211;45.040;38.788;2022-11-18T09:17:11;656.73;;;182.77;;
66400;SDS011;53211;45.040;38.788;2022-11-18T09:19:38;655.05;;;184.95;;
66400;SDS011;53211;45.040;38.788;2022-11-18T09:22:05;656.50;;;181.95;;
66400;SDS011;53211;45.040;38.788;2022-11-18T09:24:32;682.80;;;170.27;;
66400;SDS011;53211;45.040;38.788;2022-11-18T09:27:01;687.80;;;167.50;;
66400;SDS011;53211;45.040;38.788;2022-11-18T09:29:29;672.15;;;178.30;;
66400;SDS011;53211;45.040;38.788;2022-11-18T09:31:55;671.60;;;178.10;;
66400;SDS011;53211;45.040;38.788;2022-11-18T09:34:21;696.30;;;167.10;;
66400;SDS011;53211;45.040;38.788;2022-11-18T09:36:48;692.80;;;167.70;;
66400;SDS011;53211;45.040;38.788;2022-11-18T09:39:14;656.85;;;185.15;;
66400;SDS011;53211;45.040;38.788;2022-11-18T09:50:02;685.65;;;172.30;;
66400;SDS011;53211;45.040;38.788;2022-11-18T09:52:38;688.75;;;169.60;;
66400;SDS011;53211;45.040;38.788;2022-11-18T09:55:14;663.15;;;182.65;;
66400;SDS011;53211;45.040;38.788;2022-11-18T09:57:44;686.67;;;170.10;;
66400;SDS011;53211;45.040;38.788;2022-11-18T10:00:14;698.20;;;163.65;;
66400;SDS011;53211;45.040;38.788;2022-11-18T10:05:47;685.25;;;171.00;;
66400;SDS011;53211;45.040;38.788;2022-11-18T10:19:09;674.97;;;182.57;;
66400;SDS011;53211;45.040;38.788;2022-11-18T10:24:43;726.40;;;159.25;;
66400;SDS011;53211;45.040;38.788;2022-11-18T10:27:14;742.87;;;156.47;;
66400;SDS011;53211;45.040;38.788;2022-11-18T10:29:41;735.67;;;161.35;;
66400;SDS011;53211;45.040;38.788;2022-11-18T10:32:11;740.90;;;158.60;;
66400;SDS011;53211;45.040;38.788;2022-11-18T10:34:46;732.50;;;159.80;;
66400;SDS011;53211;45.040;38.788;2022-11-18T10:37:23;739.80;;;160.53;;
66400;SDS011;53211;45.040;38.788;2022-11-18T10:39:49;722.10;;;162.30;;
66400;SDS011;53211;45.040;38.788;2022-11-18T10:42:19;722.90;;;164.30;;
66400;SDS011;53211;45.040;38.788;2022-11-18T10:44:49;739.27;;;155.57;;
66400;SDS011;53211;45.040;38.788;2022-11-18T10:47:20;739.05;;;159.40;;
66400;SDS011;53211;45.040;38.788;2022-11-18T10:49:49;733.90;;;162.55;;
66400;SDS011;53211;45.040;38.788;2022-11-18T10:52:16;735.20;;;160.70;;
66400;SDS011;53211;45.040;38.788;2022-11-18T10:54:43;723.97;;;160.73;;
66400;SDS011;53211;45.040;38.788;2022-11-18T10:57:19;739.43;;;157.73;;
66400;SDS011;53211;45.040;38.788;2022-11-18T10:59:51;736.85;;;160.50;;
66400;SDS011;53211;45.040;38.788;2022-11-18T11:04:54;712.78;;;162.80;;
66400;SDS011;53211;45.040;38.788;2022-11-18T11:12:39;729.67;;;159.30;;
66400;SDS011;53211;45.040;38.788;2022-11-18T11:15:14;747.70;;;159.60;;
66400;SDS011;53211;45.040;38.788;2022-11-18T11:17:55;745.00;;;160.55;;
66400;SDS011;53211;45.040;38.788;2022-11-18T11:20:43;746.57;;;160.47;;
66400;SDS011;53211;45.040;38.788;2022-11-18T11:23:13;741.05;;;160.10;;
66400;SDS011;53211;45.040;38.788;2022-11-18T11:28:26;709.10;;;166.85;;
66400;SDS011;53211;45.040;38.788;2022-11-18T11:41:57;708.80;;;170.47;;
66400;SDS011;53211;45.040;38.788;2022-11-18T11:44:36;714.37;;;169.37;;
66400;SDS011;53211;45.040;38.788;2022-11-18T11:47:22;691.90;;;178.75;;
66400;SDS011;53211;45.040;38.788;2022-11-18T11:53:41;695.07;;;175.80;;
66400;SDS011;53211;45.040;38.788;2022-11-18T12:04:13;699.90;;;179.55;;
66400;SDS011;53211;45.040;38.788;2022-11-18T12:06:46;717.03;;;172.15;;
66400;SDS011;53211;45.040;38.788;2022-11-18T12:12:01;704.15;;;179.25;;
66400;SDS011;53211;45.040;38.788;2022-11-18T12:15:10;714.33;;;173.17;;
66400;SDS011;53211;45.040;38.788;2022-11-18T12:20:38;716.90;;;173.70;;
66400;SDS011;53211;45.040;38.788;2022-11-18T12:23:17;684.70;;;194.15;;
66400;SDS011;53211;45.040;38.788;2022-11-18T12:26:01;688.20;;;192.60;;
66400;SDS011;53211;45.040;38.788;2022-11-18T12:33:43;715.65;;;170.38;;
66400;SDS011;53211;45.040;38.788;2022-11-18T12:41:51;684.50;;;181.05;;
66400;SDS011;53211;45.040;38.788;2022-11-18T12:44:37;759.83;;;158.30;;
66400;SDS011;53211;45.040;38.788;2022-11-18T12:47:04;629.70;;;214.10;;
66400;SDS011;53211;45.040;38.788;2022-11-18T12:51:58;677.95;;;181.50;;
66400;SDS011;53211;45.040;38.788;2022-11-18T12:54:26;677.70;;;180.60;;
66400;SDS011;53211;45.040;38.788;2022-11-18T12:57:00;680.15;;;174.60;;
66400;SDS011;53211;45.040;38.788;2022-11-18T12:59:32;673.60;;;180.80;;
66400;SDS011;53211;45.040;38.788;2022-11-18T13:02:04;678.50;;;176.87;;
66400;SDS011;53211;45.040;38.788;2022-11-18T13:10:38;644.15;;;192.00;;
66400;SDS011;53211;45.040;38.788;2022-11-18T13:13:10;660.37;;;185.47;;
66400;SDS011;53211;45.040;38.788;2022-11-18T13:15:46;628.80;;;214.45;;
66400;SDS011;53211;45.040;38.788;2022-11-18T13:18:30;630.45;;;205.15;;
66400;SDS011;53211;45.040;38.788;2022-11-18T13:20:56;644.50;;;195.00;;
66400;SDS011;53211;45.040;38.788;2022-11-18T13:23:44;664.60;;;178.93;;
66400;SDS011;53211;45.040;38.788;2022-11-18T13:26:17;673.93;;;182.90;;
66400;SDS011;53211;45.040;38.788;2022-11-18T13:28:53;669.60;;;177.05;;
66400;SDS011;53211;45.040;38.788;2022-11-18T13:31:27;666.00;;;175.50;;
66400;SDS011;53211;45.040;38.788;2022-11-18T13:34:06;666.15;;;179.15;;
66400;SDS011;53211;45.040;38.788;2022-11-18T13:36:41;658.83;;;181.00;;
66400;SDS011;53211;45.040;38.788;2022-11-18T13:39:22;659.23;;;181.47;;
66400;SDS011;53211;45.040;38.788;2022-11-18T13:42:00;682.00;;;168.75;;
66400;SDS011;53211;45.040;38.788;2022-11-18T13:44:50;642.45;;;191.85;;
66400;SDS011;53211;45.040;38.788;2022-11-18T13:54:57;653.73;;;183.50;;
66400;SDS011;53211;45.040;38.788;2022-11-18T13:57:27;633.70;;;191.55;;
66400;SDS011;53211;45.040;38.788;2022-11-18T13:59:54;645.75;;;185.63;;
66400;SDS011;53211;45.040;38.788;2022-11-18T14:02:24;637.17;;;191.13;;
66400;SDS011;53211;45.040;38.788;2022-11-18T14:04:57;641.40;;;187.90;;
66400;SDS011;53211;45.040;38.788;2022-11-18T14:07:33;639.25;;;187.20;;
66400;SDS011;53211;45.040;38.788;2022-11-18T14:10:01;641.10;;;186.47;;
66400;SDS011;53211;45.040;38.788;2022-11-18T14:12:30;645.65;;;184.60;;
66400;SDS011;53211;45.040;38.788;2022-11-18T14:17:57;647.15;;;185.05;;
66400;SDS011;53211;45.040;38.788;2022-11-18T14:20:28;620.45;;;201.90;;
66400;SDS011;53211;45.040;38.788;2022-11-18T14:22:57;623.40;;;197.75;;
66400;SDS011;53211;45.040;38.788;2022-11-18T14:25:29;623.25;;;198.30;;
66400;SDS011;53211;45.040;38.788;2022-11-18T14:31:03;606.50;;;219.70;;
66400;SDS011;53211;45.040;38.788;2022-11-18T14:33:29;595.58;;;215.57;;
66400;SDS011;53211;45.040;38.788;2022-11-18T14:36:09;602.80;;;216.80;;
66400;SDS011;53211;45.040;38.788;2022-11-18T14:41:15;629.85;;;193.65;;
66400;SDS011;53211;45.040;38.788;2022-11-18T14:44:03;614.45;;;206.70;;
66400;SDS011;53211;45.040;38.788;2022-11-18T14:46:30;606.05;;;214.60;;
66400;SDS011;53211;45.040;38.788;2022-11-18T14:48:56;637.60;;;187.15;;
66400;SDS011;53211;45.040;38.788;2022-11-18T14:51:25;618.40;;;193.65;;
66400;SDS011;53211;45.040;38.788;2022-11-18T14:53:56;627.70;;;189.77;;
66400;SDS011;53211;45.040;38.788;2022-11-18T14:56:31;603.05;;;211.90;;
66400;SDS011;53211;45.040;38.788;2022-11-18T14:58:59;613.53;;;201.73;;
66400;SDS011;53211;45.040;38.788;2022-11-18T15:01:25;614.37;;;201.57;;
66400;SDS011;53211;45.040;38.788;2022-11-18T15:03:54;607.93;;;204.67;;
66400;SDS011;53211;45.040;38.788;2022-11-18T15:06:20;620.40;;;193.90;;
66400;SDS011;53211;45.040;38.788;2022-11-18T15:08:48;600.17;;;213.93;;
66400;SDS011;53211;45.040;38.788;2022-11-18T15:11:15;582.33;;;237.13;;
66400;SDS011;53211;45.040;38.788;2022-11-18T15:13:43;580.90;;;234.95;;
66400;SDS011;53211;45.040;38.788;2022-11-18T15:16:10;576.08;;;233.90;;
66400;SDS011;53211;45.040;38.788;2022-11-18T15:18:38;597.30;;;216.70;;
66400;SDS011;53211;45.040;38.788;2022-11-18T15:21:04;610.43;;;203.60;;
66400;SDS011;53211;45.040;38.788;2022-11-18T15:23:30;607.93;;;204.73;;
66400;SDS011;53211;45.040;38.788;2022-11-18T15:25:57;606.80;;;204.05;;
66400;SDS011;53211;45.040;38.788;2022-11-18T15:28:24;607.35;;;203.55;;
66400;SDS011;53211;45.040;38.788;2022-11-18T15:30:50;615.35;;;197.20;;
66400;SDS011;53211;45.040;38.788;2022-11-18T15:33:16;604.35;;;204.40;;
66400;SDS011;53211;45.040;38.788;2022-11-18T15:35:42;604.75;;;204.90;;
66400;SDS011;53211;45.040;38.788;2022-11-18T15:38:09;599.95;;;211.45;;
66400;SDS011;53211;45.040;38.788;2022-11-18T15:40:36;594.10;;;212.00;;
66400;SDS011;53211;45.040;38.788;2022-11-18T15:43:03;603.10;;;208.50;;
66400;SDS011;53211;45.040;38.788;2022-11-18T15:45:29;603.00;;;207.65;;
66400;SDS011;53211;45.040;38.788;2022-11-18T15:47:55;599.05;;;209.25;;
66400;SDS011;53211;45.040;38.788;2022-11-18T15:50:21;615.83;;;191.63;;
66400;SDS011;53211;45.040;38.788;2022-11-18T15:52:47;614.80;;;191.90;;
66400;SDS011;53211;45.040;38.788;2022-11-18T15:55:13;612.95;;;200.20;;
66400;SDS011;53211;45.040;38.788;2022-11-18T15:57:40;622.50;;;195.00;;
66400;SDS011;53211;45.040;38.788;2022-11-18T16:00:06;611.00;;;211.50;;
66400;SDS011;53211;45.040;38.788;2022-11-18T16:02:37;604.75;;;204.95;;
66400;SDS011;53211;45.040;38.788;2022-11-18T16:05:03;610.30;;;200.55;;
66400;SDS011;53211;45.040;38.788;2022-11-18T16:07:29;613.60;;;201.80;;
66400;SDS011;53211;45.040;38.788;2022-11-18T16:09:55;611.00;;;197.87;;
66400;SDS011;53211;45.040;38.788;2022-11-18T16:12:40;608.63;;;206.67;;
66400;SDS011;53211;45.040;38.788;2022-11-18T16:15:12;611.47;;;198.40;;
66400;SDS011;53211;45.040;38.788;2022-11-18T16:17:57;623.75;;;188.25;;
66400;SDS011;53211;45.040;38.788;2022-11-18T16:20:24;626.27;;;184.43;;